ESOK 091420Z 31013G26KT CAVOK 10/M09 Q1019